sensor_id;sensor_type;location;lat;lon;timestamp;pressure;altitude;pressure_sealevel;temperature;humidity
22938;BME280;11634;42.734;23.298;2022-08-16T00:02:00;94852.91;;;19.36;100.00
22938;BME280;11634;42.734;23.298;2022-08-16T00:04:27;94834.81;;;19.27;100.00
22938;BME280;11634;42.734;23.298;2022-08-16T00:06:54;94812.19;;;19.05;100.00
22938;BME280;11634;42.734;23.298;2022-08-16T00:09:20;94828.22;;;19.10;100.00
22938;BME280;11634;42.734;23.298;2022-08-16T00:11:48;94848.22;;;19.25;100.00
22938;BME280;11634;42.734;23.298;2022-08-16T00:14:18;94811.34;;;19.05;100.00
22938;BME280;11634;42.734;23.298;2022-08-16T00:16:45;94793.78;;;18.91;100.00
22938;BME280;11634;42.734;23.298;2022-08-16T00:19:13;94842.19;;;19.04;100.00
22938;BME280;11634;42.734;23.298;2022-08-16T00:21:40;94786.69;;;18.85;100.00
22938;BME280;11634;42.734;23.298;2022-08-16T00:24:06;94787.03;;;18.75;100.00
22938;BME280;11634;42.734;23.298;2022-08-16T00:26:31;94812.03;;;18.86;100.00
22938;BME280;11634;42.734;23.298;2022-08-16T00:28:57;94845.00;;;19.03;100.00
22938;BME280;11634;42.734;23.298;2022-08-16T00:31:23;94853.47;;;18.92;100.00
22938;BME280;11634;42.734;23.298;2022-08-16T00:33:48;94852.97;;;18.82;100.00
22938;BME280;11634;42.734;23.298;2022-08-16T00:36:14;94844.38;;;18.67;100.00
22938;BME280;11634;42.734;23.298;2022-08-16T00:38:39;94836.38;;;18.54;100.00
22938;BME280;11634;42.734;23.298;2022-08-16T00:41:05;94856.50;;;18.62;100.00
22938;BME280;11634;42.734;23.298;2022-08-16T00:43:34;94847.34;;;18.58;100.00
22938;BME280;11634;42.734;23.298;2022-08-16T00:46:11;94851.19;;;18.55;100.00
22938;BME280;11634;42.734;23.298;2022-08-16T00:48:39;94852.78;;;18.50;100.00
22938;BME280;11634;42.734;23.298;2022-08-16T00:51:05;94862.59;;;18.62;100.00
22938;BME280;11634;42.734;23.298;2022-08-16T00:53:32;94862.16;;;18.59;100.00
22938;BME280;11634;42.734;23.298;2022-08-16T00:56:01;94862.16;;;18.59;100.00
22938;BME280;11634;42.734;23.298;2022-08-16T00:58:30;94843.44;;;18.54;100.00
22938;BME280;11634;42.734;23.298;2022-08-16T01:00:56;94867.22;;;18.60;100.00
22938;BME280;11634;42.734;23.298;2022-08-16T01:03:26;94865.78;;;18.58;100.00
22938;BME280;11634;42.734;23.298;2022-08-16T01:05:53;94864.59;;;18.60;100.00
22938;BME280;11634;42.734;23.298;2022-08-16T01:08:21;94867.03;;;18.62;100.00
22938;BME280;11634;42.734;23.298;2022-08-16T01:10:47;94857.53;;;18.61;100.00
22938;BME280;11634;42.734;23.298;2022-08-16T01:13:16;94885.88;;;18.86;100.00
22938;BME280;11634;42.734;23.298;2022-08-16T01:15:47;94861.72;;;18.82;100.00
22938;BME280;11634;42.734;23.298;2022-08-16T01:18:17;94882.03;;;18.88;100.00
22938;BME280;11634;42.734;23.298;2022-08-16T01:21:03;94858.06;;;18.83;100.00
22938;BME280;11634;42.734;23.298;2022-08-16T01:26:15;94875.56;;;18.91;100.00
22938;BME280;11634;42.734;23.298;2022-08-16T01:28:43;94886.59;;;19.01;100.00
22938;BME280;11634;42.734;23.298;2022-08-16T01:31:11;94905.38;;;19.12;100.00
22938;BME280;11634;42.734;23.298;2022-08-16T01:33:38;94897.06;;;19.15;100.00
22938;BME280;11634;42.734;23.298;2022-08-16T01:36:06;94876.38;;;18.91;100.00
22938;BME280;11634;42.734;23.298;2022-08-16T01:38:35;94901.31;;;19.10;100.00
22938;BME280;11634;42.734;23.298;2022-08-16T01:41:11;94886.91;;;19.19;100.00
22938;BME280;11634;42.734;23.298;2022-08-16T01:43:40;94902.16;;;19.17;100.00
22938;BME280;11634;42.734;23.298;2022-08-16T01:49:00;94907.88;;;18.99;100.00
22938;BME280;11634;42.734;23.298;2022-08-16T01:51:27;94918.03;;;18.96;100.00
22938;BME280;11634;42.734;23.298;2022-08-16T01:53:55;94891.34;;;18.84;100.00
22938;BME280;11634;42.734;23.298;2022-08-16T01:56:27;94915.19;;;18.97;100.00
22938;BME280;11634;42.734;23.298;2022-08-16T01:58:56;94911.53;;;18.98;100.00
22938;BME280;11634;42.734;23.298;2022-08-16T02:01:22;94924.91;;;18.90;100.00
22938;BME280;11634;42.734;23.298;2022-08-16T02:03:49;94929.19;;;18.98;100.00
22938;BME280;11634;42.734;23.298;2022-08-16T02:06:15;94931.63;;;18.99;100.00
22938;BME280;11634;42.734;23.298;2022-08-16T02:08:41;94948.25;;;18.93;100.00
22938;BME280;11634;42.734;23.298;2022-08-16T02:11:08;94964.53;;;18.76;100.00
22938;BME280;11634;42.734;23.298;2022-08-16T02:13:35;94913.56;;;18.48;100.00
22938;BME280;11634;42.734;23.298;2022-08-16T02:16:01;94953.06;;;18.63;100.00
22938;BME280;11634;42.734;23.298;2022-08-16T02:18:27;94962.72;;;18.56;100.00
22938;BME280;11634;42.734;23.298;2022-08-16T02:20:53;94957.50;;;18.41;100.00
22938;BME280;11634;42.734;23.298;2022-08-16T02:23:20;94942.97;;;18.45;100.00
22938;BME280;11634;42.734;23.298;2022-08-16T02:25:46;94949.81;;;18.61;100.00
22938;BME280;11634;42.734;23.298;2022-08-16T02:28:13;94955.63;;;18.77;100.00
22938;BME280;11634;42.734;23.298;2022-08-16T02:30:39;94961.97;;;18.82;100.00
22938;BME280;11634;42.734;23.298;2022-08-16T02:33:05;94960.50;;;18.80;100.00
22938;BME280;11634;42.734;23.298;2022-08-16T02:35:32;94960.91;;;18.77;100.00
22938;BME280;11634;42.734;23.298;2022-08-16T02:37:59;94959.72;;;18.79;100.00
22938;BME280;11634;42.734;23.298;2022-08-16T02:40:25;94934.28;;;18.72;100.00
22938;BME280;11634;42.734;23.298;2022-08-16T02:42:52;94940.22;;;18.80;100.00
22938;BME280;11634;42.734;23.298;2022-08-16T02:45:20;94926.28;;;18.86;100.00
22938;BME280;11634;42.734;23.298;2022-08-16T02:47:46;94919.78;;;18.89;100.00
22938;BME280;11634;42.734;23.298;2022-08-16T02:50:12;94925.75;;;18.97;100.00
22938;BME280;11634;42.734;23.298;2022-08-16T02:52:38;94930.72;;;19.07;100.00
22938;BME280;11634;42.734;23.298;2022-08-16T02:55:06;94932.78;;;19.11;100.00
22938;BME280;11634;42.734;23.298;2022-08-16T02:57:34;94928.16;;;19.20;100.00
22938;BME280;11634;42.734;23.298;2022-08-16T03:00:00;94939.16;;;19.23;100.00
22938;BME280;11634;42.734;23.298;2022-08-16T03:02:29;94919.13;;;19.35;100.00
22938;BME280;11634;42.734;23.298;2022-08-16T03:04:54;94933.97;;;19.42;100.00
22938;BME280;11634;42.734;23.298;2022-08-16T03:07:20;94907.97;;;19.39;100.00
22938;BME280;11634;42.734;23.298;2022-08-16T03:09:48;94911.28;;;19.54;100.00
22938;BME280;11634;42.734;23.298;2022-08-16T03:12:18;94915.78;;;19.60;100.00
22938;BME280;11634;42.734;23.298;2022-08-16T03:14:45;94876.09;;;19.41;100.00
22938;BME280;11634;42.734;23.298;2022-08-16T03:17:12;94921.69;;;19.62;100.00
22938;BME280;11634;42.734;23.298;2022-08-16T03:19:38;94897.28;;;19.60;100.00
22938;BME280;11634;42.734;23.298;2022-08-16T03:22:04;94889.16;;;19.55;100.00
22938;BME280;11634;42.734;23.298;2022-08-16T03:24:30;94905.41;;;19.59;100.00
22938;BME280;11634;42.734;23.298;2022-08-16T03:26:59;94900.28;;;19.51;100.00
22938;BME280;11634;42.734;23.298;2022-08-16T03:29:27;94912.94;;;19.62;100.00
22938;BME280;11634;42.734;23.298;2022-08-16T03:31:54;94903.16;;;19.56;100.00
22938;BME280;11634;42.734;23.298;2022-08-16T03:34:21;94889.72;;;19.51;100.00
22938;BME280;11634;42.734;23.298;2022-08-16T03:36:47;94913.19;;;19.73;100.00
22938;BME280;11634;42.734;23.298;2022-08-16T03:39:12;94899.34;;;19.65;100.00
22938;BME280;11634;42.734;23.298;2022-08-16T03:41:38;94889.00;;;19.70;100.00
22938;BME280;11634;42.734;23.298;2022-08-16T03:44:06;94900.19;;;19.72;100.00
22938;BME280;11634;42.734;23.298;2022-08-16T03:46:35;94921.03;;;20.00;100.00
22938;BME280;11634;42.734;23.298;2022-08-16T03:49:02;94927.94;;;19.95;100.00
22938;BME280;11634;42.734;23.298;2022-08-16T03:51:28;94951.53;;;20.09;100.00
22938;BME280;11634;42.734;23.298;2022-08-16T03:54:00;94926.44;;;19.86;100.00
22938;BME280;11634;42.734;23.298;2022-08-16T03:56:26;94895.47;;;19.61;100.00
22938;BME280;11634;42.734;23.298;2022-08-16T03:58:53;94901.44;;;19.35;100.00
22938;BME280;11634;42.734;23.298;2022-08-16T04:01:24;94926.78;;;19.30;100.00
22938;BME280;11634;42.734;23.298;2022-08-16T04:03:52;94933.22;;;19.15;100.00
22938;BME280;11634;42.734;23.298;2022-08-16T04:06:19;94925.03;;;18.82;100.00
22938;BME280;11634;42.734;23.298;2022-08-16T04:08:47;94937.56;;;18.74;100.00
22938;BME280;11634;42.734;23.298;2022-08-16T04:11:13;94922.66;;;18.66;100.00
22938;BME280;11634;42.734;23.298;2022-08-16T04:13:38;94909.56;;;18.52;100.00
22938;BME280;11634;42.734;23.298;2022-08-16T04:16:04;94907.81;;;18.38;100.00
22938;BME280;11634;42.734;23.298;2022-08-16T04:18:31;94906.75;;;18.33;100.00
22938;BME280;11634;42.734;23.298;2022-08-16T04:20:58;94906.16;;;18.31;100.00
22938;BME280;11634;42.734;23.298;2022-08-16T04:23:25;94904.94;;;18.33;100.00
22938;BME280;11634;42.734;23.298;2022-08-16T04:25:53;94910.19;;;18.33;100.00
22938;BME280;11634;42.734;23.298;2022-08-16T04:28:18;94907.44;;;18.41;100.00
22938;BME280;11634;42.734;23.298;2022-08-16T04:30:44;94907.09;;;18.44;100.00
22938;BME280;11634;42.734;23.298;2022-08-16T04:33:10;94914.16;;;18.65;100.00
22938;BME280;11634;42.734;23.298;2022-08-16T04:35:38;94906.97;;;18.86;100.00
22938;BME280;11634;42.734;23.298;2022-08-16T04:38:06;94921.75;;;18.80;100.00
22938;BME280;11634;42.734;23.298;2022-08-16T04:40:38;94934.19;;;18.86;100.00
22938;BME280;11634;42.734;23.298;2022-08-16T04:43:05;94936.59;;;19.09;100.00
22938;BME280;11634;42.734;23.298;2022-08-16T04:45:31;94943.31;;;19.11;100.00
22938;BME280;11634;42.734;23.298;2022-08-16T04:47:57;94954.91;;;19.44;100.00
22938;BME280;11634;42.734;23.298;2022-08-16T04:50:30;94957.31;;;20.32;100.00
22938;BME280;11634;42.734;23.298;2022-08-16T04:53:00;94958.00;;;21.37;100.00
22938;BME280;11634;42.734;23.298;2022-08-16T04:55:30;94966.34;;;22.10;100.00
22938;BME280;11634;42.734;23.298;2022-08-16T04:57:56;94975.53;;;22.88;100.00
22938;BME280;11634;42.734;23.298;2022-08-16T05:00:32;94992.28;;;23.19;100.00
22938;BME280;11634;42.734;23.298;2022-08-16T05:03:10;94994.81;;;23.74;100.00
22938;BME280;11634;42.734;23.298;2022-08-16T05:05:44;94998.44;;;23.80;100.00
22938;BME280;11634;42.734;23.298;2022-08-16T05:08:12;94990.06;;;24.01;100.00
22938;BME280;11634;42.734;23.298;2022-08-16T05:10:42;94999.00;;;24.42;100.00
22938;BME280;11634;42.734;23.298;2022-08-16T05:13:09;95002.22;;;24.08;100.00
22938;BME280;11634;42.734;23.298;2022-08-16T05:15:35;94989.69;;;23.79;100.00
22938;BME280;11634;42.734;23.298;2022-08-16T05:18:02;95005.34;;;23.63;100.00
22938;BME280;11634;42.734;23.298;2022-08-16T05:20:31;95015.28;;;22.95;100.00
22938;BME280;11634;42.734;23.298;2022-08-16T05:22:58;94997.31;;;22.22;100.00
22938;BME280;11634;42.734;23.298;2022-08-16T05:25:24;94996.59;;;21.96;100.00
22938;BME280;11634;42.734;23.298;2022-08-16T05:27:52;94993.47;;;21.49;100.00
22938;BME280;11634;42.734;23.298;2022-08-16T05:30:22;94993.84;;;21.27;100.00
22938;BME280;11634;42.734;23.298;2022-08-16T05:32:48;94996.53;;;21.20;100.00
22938;BME280;11634;42.734;23.298;2022-08-16T05:35:15;94994.25;;;21.24;100.00
22938;BME280;11634;42.734;23.298;2022-08-16T05:38:00;94969.38;;;21.38;100.00
22938;BME280;11634;42.734;23.298;2022-08-16T05:40:27;94940.66;;;21.35;100.00
22938;BME280;11634;42.734;23.298;2022-08-16T05:42:53;94996.69;;;21.70;100.00
22938;BME280;11634;42.734;23.298;2022-08-16T05:45:19;94972.22;;;21.68;100.00
22938;BME280;11634;42.734;23.298;2022-08-16T05:47:45;94988.25;;;21.93;100.00
22938;BME280;11634;42.734;23.298;2022-08-16T05:50:11;95008.56;;;22.18;100.00
22938;BME280;11634;42.734;23.298;2022-08-16T05:52:37;95000.59;;;22.18;100.00
22938;BME280;11634;42.734;23.298;2022-08-16T05:55:05;94985.66;;;22.30;100.00
22938;BME280;11634;42.734;23.298;2022-08-16T05:57:33;94989.78;;;22.26;100.00
22938;BME280;11634;42.734;23.298;2022-08-16T06:00:00;95007.69;;;22.37;100.00
22938;BME280;11634;42.734;23.298;2022-08-16T06:02:27;94967.09;;;22.30;100.00
22938;BME280;11634;42.734;23.298;2022-08-16T06:04:57;94997.16;;;22.61;100.00
22938;BME280;11634;42.734;23.298;2022-08-16T06:07:23;94998.44;;;22.83;100.00
22938;BME280;11634;42.734;23.298;2022-08-16T06:09:53;95001.91;;;22.83;100.00
22938;BME280;11634;42.734;23.298;2022-08-16T06:12:23;95003.91;;;22.88;100.00
22938;BME280;11634;42.734;23.298;2022-08-16T06:33:20;94966.34;;;23.81;100.00
22938;BME280;11634;42.734;23.298;2022-08-16T06:35:52;94997.22;;;24.18;100.00
22938;BME280;11634;42.734;23.298;2022-08-16T06:38:17;94995.88;;;24.45;100.00
22938;BME280;11634;42.734;23.298;2022-08-16T06:40:44;95007.63;;;24.55;100.00
22938;BME280;11634;42.734;23.298;2022-08-16T06:43:12;94978.78;;;24.52;100.00
22938;BME280;11634;42.734;23.298;2022-08-16T06:45:39;94998.00;;;24.83;100.00
22938;BME280;11634;42.734;23.298;2022-08-16T06:48:15;94999.19;;;24.87;100.00
22938;BME280;11634;42.734;23.298;2022-08-16T06:50:40;94981.03;;;24.67;100.00
22938;BME280;11634;42.734;23.298;2022-08-16T06:53:07;94998.69;;;24.79;100.00
22938;BME280;11634;42.734;23.298;2022-08-16T06:55:34;94981.72;;;24.91;100.00
22938;BME280;11634;42.734;23.298;2022-08-16T06:58:05;94989.75;;;25.03;100.00
22938;BME280;11634;42.734;23.298;2022-08-16T07:00:31;94980.19;;;24.55;100.00
22938;BME280;11634;42.734;23.298;2022-08-16T07:03:07;94969.56;;;24.95;100.00
22938;BME280;11634;42.734;23.298;2022-08-16T07:05:33;94965.66;;;25.09;100.00
22938;BME280;11634;42.734;23.298;2022-08-16T07:08:20;94972.31;;;25.18;100.00
22938;BME280;11634;42.734;23.298;2022-08-16T07:10:46;94956.91;;;24.91;100.00
22938;BME280;11634;42.734;23.298;2022-08-16T07:13:13;94972.41;;;24.82;100.00
22938;BME280;11634;42.734;23.298;2022-08-16T07:15:41;94945.44;;;24.79;100.00
22938;BME280;11634;42.734;23.298;2022-08-16T07:18:07;94927.56;;;24.68;100.00
22938;BME280;11634;42.734;23.298;2022-08-16T07:20:38;94928.88;;;24.88;100.00
22938;BME280;11634;42.734;23.298;2022-08-16T07:23:04;94954.91;;;25.27;100.00
22938;BME280;11634;42.734;23.298;2022-08-16T07:25:41;94948.00;;;25.72;100.00
22938;BME280;11634;42.734;23.298;2022-08-16T07:28:12;94937.84;;;25.96;100.00
22938;BME280;11634;42.734;23.298;2022-08-16T07:30:39;94937.41;;;25.88;100.00
22938;BME280;11634;42.734;23.298;2022-08-16T07:33:08;94930.94;;;25.73;100.00
22938;BME280;11634;42.734;23.298;2022-08-16T07:35:37;94951.97;;;26.20;100.00
22938;BME280;11634;42.734;23.298;2022-08-16T07:38:04;94955.56;;;26.25;100.00
22938;BME280;11634;42.734;23.298;2022-08-16T07:40:41;94944.16;;;26.30;100.00
22938;BME280;11634;42.734;23.298;2022-08-16T07:43:07;94953.34;;;26.22;99.93
22938;BME280;11634;42.734;23.298;2022-08-16T07:45:33;94930.69;;;25.86;98.26
22938;BME280;11634;42.734;23.298;2022-08-16T07:48:01;94921.16;;;25.67;100.00
22938;BME280;11634;42.734;23.298;2022-08-16T07:50:29;94959.50;;;26.23;97.46
22938;BME280;11634;42.734;23.298;2022-08-16T07:52:55;94970.47;;;26.49;94.59
22938;BME280;11634;42.734;23.298;2022-08-16T07:55:22;94953.75;;;26.53;89.47
22938;BME280;11634;42.734;23.298;2022-08-16T07:57:48;94954.13;;;26.46;87.05
22938;BME280;11634;42.734;23.298;2022-08-16T08:00:14;94945.66;;;26.26;78.66
22938;BME280;11634;42.734;23.298;2022-08-16T08:02:40;94959.22;;;26.47;78.04
22938;BME280;11634;42.734;23.298;2022-08-16T08:05:06;94981.88;;;26.72;78.22
22938;BME280;11634;42.734;23.298;2022-08-16T08:07:35;94962.75;;;26.64;77.59
22938;BME280;11634;42.734;23.298;2022-08-16T08:10:01;94965.34;;;26.59;72.94
22938;BME280;11634;42.734;23.298;2022-08-16T08:12:27;94961.53;;;26.55;76.83
22938;BME280;11634;42.734;23.298;2022-08-16T08:14:55;94967.91;;;26.54;80.11
22938;BME280;11634;42.734;23.298;2022-08-16T08:17:21;94968.81;;;26.59;76.46
22938;BME280;11634;42.734;23.298;2022-08-16T08:19:48;94966.81;;;26.66;77.93
22938;BME280;11634;42.734;23.298;2022-08-16T08:22:14;94937.03;;;26.47;81.52
22938;BME280;11634;42.734;23.298;2022-08-16T08:24:46;94958.81;;;26.94;80.55
22938;BME280;11634;42.734;23.298;2022-08-16T08:27:12;94951.59;;;27.27;77.89
22938;BME280;11634;42.734;23.298;2022-08-16T08:29:39;94963.53;;;27.53;77.05
22938;BME280;11634;42.734;23.298;2022-08-16T08:32:06;94968.78;;;27.31;76.76
22938;BME280;11634;42.734;23.298;2022-08-16T08:34:33;94959.06;;;27.42;75.66
22938;BME280;11634;42.734;23.298;2022-08-16T08:36:58;94958.50;;;27.56;74.52
22938;BME280;11634;42.734;23.298;2022-08-16T08:39:32;94965.50;;;27.57;73.74
22938;BME280;11634;42.734;23.298;2022-08-16T08:41:59;94970.16;;;27.50;72.53
22938;BME280;11634;42.734;23.298;2022-08-16T08:44:26;94973.44;;;27.68;72.25
22938;BME280;11634;42.734;23.298;2022-08-16T08:46:52;94971.72;;;27.79;70.19
22938;BME280;11634;42.734;23.298;2022-08-16T08:49:22;94959.97;;;27.63;69.92
22938;BME280;11634;42.734;23.298;2022-08-16T08:51:48;94963.50;;;27.85;69.23
22938;BME280;11634;42.734;23.298;2022-08-16T08:54:14;94931.09;;;27.65;68.44
22938;BME280;11634;42.734;23.298;2022-08-16T08:56:42;94947.94;;;27.82;69.32
22938;BME280;11634;42.734;23.298;2022-08-16T08:59:20;94937.34;;;27.55;67.68
22938;BME280;11634;42.734;23.298;2022-08-16T09:01:48;94949.03;;;27.65;66.97
22938;BME280;11634;42.734;23.298;2022-08-16T09:04:14;94965.81;;;27.77;67.64
22938;BME280;11634;42.734;23.298;2022-08-16T09:06:40;94949.69;;;27.93;66.09
22938;BME280;11634;42.734;23.298;2022-08-16T09:09:07;94956.09;;;27.92;65.59
22938;BME280;11634;42.734;23.298;2022-08-16T09:11:35;94962.25;;;27.71;67.10
22938;BME280;11634;42.734;23.298;2022-08-16T09:14:03;94955.13;;;27.61;67.24
22938;BME280;11634;42.734;23.298;2022-08-16T09:16:29;94977.50;;;27.55;68.27
22938;BME280;11634;42.734;23.298;2022-08-16T09:18:58;94947.25;;;27.38;68.15
22938;BME280;11634;42.734;23.298;2022-08-16T09:21:24;94958.81;;;27.76;64.88
22938;BME280;11634;42.734;23.298;2022-08-16T09:23:49;94952.81;;;27.85;64.04
22938;BME280;11634;42.734;23.298;2022-08-16T09:26:16;94971.38;;;27.92;65.89
22938;BME280;11634;42.734;23.298;2022-08-16T09:28:42;94925.00;;;27.86;64.87
22938;BME280;11634;42.734;23.298;2022-08-16T09:31:17;94941.03;;;28.08;63.16
22938;BME280;11634;42.734;23.298;2022-08-16T09:33:43;94967.94;;;28.13;63.30
22938;BME280;11634;42.734;23.298;2022-08-16T09:36:10;94873.88;;;27.50;64.21
22938;BME280;11634;42.734;23.298;2022-08-16T09:38:36;94940.31;;;28.12;63.80
22938;BME280;11634;42.734;23.298;2022-08-16T09:41:06;94962.84;;;28.32;63.17
22938;BME280;11634;42.734;23.298;2022-08-16T09:43:33;94958.28;;;28.54;62.68
22938;BME280;11634;42.734;23.298;2022-08-16T09:46:01;94936.59;;;28.34;62.51
22938;BME280;11634;42.734;23.298;2022-08-16T09:48:26;94945.22;;;28.84;61.65
22938;BME280;11634;42.734;23.298;2022-08-16T09:50:53;94963.41;;;28.77;60.93
22938;BME280;11634;42.734;23.298;2022-08-16T09:53:21;94946.25;;;28.35;62.95
22938;BME280;11634;42.734;23.298;2022-08-16T09:55:51;94956.28;;;28.45;63.33
22938;BME280;11634;42.734;23.298;2022-08-16T09:58:19;94957.59;;;28.90;61.81
22938;BME280;11634;42.734;23.298;2022-08-16T10:00:53;94905.53;;;28.81;59.81
22938;BME280;11634;42.734;23.298;2022-08-16T10:03:19;94940.44;;;29.48;58.73
22938;BME280;11634;42.734;23.298;2022-08-16T10:05:46;94950.69;;;29.25;59.19
22938;BME280;11634;42.734;23.298;2022-08-16T10:08:12;94946.88;;;28.90;62.07
22938;BME280;11634;42.734;23.298;2022-08-16T10:10:38;94949.91;;;28.51;62.63
22938;BME280;11634;42.734;23.298;2022-08-16T10:13:30;94958.88;;;28.61;62.77
22938;BME280;11634;42.734;23.298;2022-08-16T10:15:58;94952.13;;;28.54;62.73
22938;BME280;11634;42.734;23.298;2022-08-16T10:18:28;94954.03;;;28.58;63.09
22938;BME280;11634;42.734;23.298;2022-08-16T10:20:56;94940.00;;;28.73;61.21
22938;BME280;11634;42.734;23.298;2022-08-16T10:23:23;94949.81;;;29.15;59.54
22938;BME280;11634;42.734;23.298;2022-08-16T10:25:48;94938.78;;;29.11;59.83
22938;BME280;11634;42.734;23.298;2022-08-16T10:28:14;94944.06;;;29.28;60.09
22938;BME280;11634;42.734;23.298;2022-08-16T10:30:41;94938.75;;;29.37;60.36
22938;BME280;11634;42.734;23.298;2022-08-16T10:33:09;94946.31;;;29.40;58.98
22938;BME280;11634;42.734;23.298;2022-08-16T10:35:36;94936.28;;;29.00;59.51
22938;BME280;11634;42.734;23.298;2022-08-16T10:38:03;94919.56;;;28.93;59.64
22938;BME280;11634;42.734;23.298;2022-08-16T10:40:28;94923.50;;;28.59;60.90
22938;BME280;11634;42.734;23.298;2022-08-16T10:42:55;94933.47;;;28.64;62.10
22938;BME280;11634;42.734;23.298;2022-08-16T10:45:23;94956.34;;;28.71;62.47
22938;BME280;11634;42.734;23.298;2022-08-16T10:47:49;94927.91;;;28.70;61.81
22938;BME280;11634;42.734;23.298;2022-08-16T10:50:15;94955.50;;;28.92;61.98
22938;BME280;11634;42.734;23.298;2022-08-16T10:52:42;94943.53;;;29.30;60.96
22938;BME280;11634;42.734;23.298;2022-08-16T10:55:13;94939.88;;;29.41;61.42
22938;BME280;11634;42.734;23.298;2022-08-16T10:57:40;94896.00;;;29.26;58.11
22938;BME280;11634;42.734;23.298;2022-08-16T11:00:10;94949.22;;;29.70;57.97
22938;BME280;11634;42.734;23.298;2022-08-16T11:02:41;94935.13;;;29.89;56.07
22938;BME280;11634;42.734;23.298;2022-08-16T11:05:11;94941.47;;;30.15;54.66
22938;BME280;11634;42.734;23.298;2022-08-16T11:07:39;94926.28;;;29.94;52.57
22938;BME280;11634;42.734;23.298;2022-08-16T11:10:05;94931.47;;;30.05;53.40
22938;BME280;11634;42.734;23.298;2022-08-16T11:12:31;94932.81;;;30.08;52.24
22938;BME280;11634;42.734;23.298;2022-08-16T11:14:57;94922.13;;;29.72;52.67
22938;BME280;11634;42.734;23.298;2022-08-16T11:17:23;94933.25;;;29.54;53.07
22938;BME280;11634;42.734;23.298;2022-08-16T11:19:48;94932.72;;;29.52;55.10
22938;BME280;11634;42.734;23.298;2022-08-16T11:22:14;94914.41;;;29.44;54.88
22938;BME280;11634;42.734;23.298;2022-08-16T11:24:45;94933.91;;;29.34;54.18
22938;BME280;11634;42.734;23.298;2022-08-16T11:27:17;94930.06;;;29.26;55.77
22938;BME280;11634;42.734;23.298;2022-08-16T11:29:43;94909.63;;;29.20;55.95
22938;BME280;11634;42.734;23.298;2022-08-16T11:32:08;94919.47;;;29.09;56.06
22938;BME280;11634;42.734;23.298;2022-08-16T11:34:34;94927.38;;;28.94;65.67
22938;BME280;11634;42.734;23.298;2022-08-16T11:37:12;94926.38;;;28.74;70.07
22938;BME280;11634;42.734;23.298;2022-08-16T11:39:38;94930.88;;;28.26;74.68
22938;BME280;11634;42.734;23.298;2022-08-16T11:42:03;94912.31;;;27.82;72.79
22938;BME280;11634;42.734;23.298;2022-08-16T11:44:29;94934.81;;;27.81;77.25
22938;BME280;11634;42.734;23.298;2022-08-16T11:46:55;94912.78;;;27.74;75.22
22938;BME280;11634;42.734;23.298;2022-08-16T11:49:20;94922.97;;;27.77;78.15
22938;BME280;11634;42.734;23.298;2022-08-16T11:51:46;94923.69;;;27.72;79.63
22938;BME280;11634;42.734;23.298;2022-08-16T11:54:16;94906.13;;;27.60;78.27
22938;BME280;11634;42.734;23.298;2022-08-16T11:56:42;94902.06;;;27.74;74.56
22938;BME280;11634;42.734;23.298;2022-08-16T11:59:08;94916.06;;;28.02;72.82
22938;BME280;11634;42.734;23.298;2022-08-16T12:01:34;94904.75;;;28.85;64.51
22938;BME280;11634;42.734;23.298;2022-08-16T12:04:00;94910.66;;;29.86;59.46
22938;BME280;11634;42.734;23.298;2022-08-16T12:06:26;94909.09;;;30.41;54.45
22938;BME280;11634;42.734;23.298;2022-08-16T12:08:55;94904.09;;;30.84;51.75
22938;BME280;11634;42.734;23.298;2022-08-16T12:11:24;94883.44;;;31.19;49.59
22938;BME280;11634;42.734;23.298;2022-08-16T12:13:51;94874.28;;;31.05;48.55
22938;BME280;11634;42.734;23.298;2022-08-16T12:16:18;94883.41;;;31.24;48.01
22938;BME280;11634;42.734;23.298;2022-08-16T12:18:44;94891.78;;;31.48;48.71
22938;BME280;11634;42.734;23.298;2022-08-16T12:21:10;94894.97;;;31.05;56.87
22938;BME280;11634;42.734;23.298;2022-08-16T12:23:37;94895.00;;;30.24;61.58
22938;BME280;11634;42.734;23.298;2022-08-16T12:26:02;94889.03;;;29.61;64.46
22938;BME280;11634;42.734;23.298;2022-08-16T12:28:28;94892.50;;;29.26;65.72
22938;BME280;11634;42.734;23.298;2022-08-16T12:30:58;94876.56;;;29.14;66.39
22938;BME280;11634;42.734;23.298;2022-08-16T12:33:24;94873.81;;;29.04;64.97
22938;BME280;11634;42.734;23.298;2022-08-16T12:35:50;94869.84;;;29.12;67.07
22938;BME280;11634;42.734;23.298;2022-08-16T12:38:16;94894.13;;;29.63;66.12
22938;BME280;11634;42.734;23.298;2022-08-16T12:40:47;94875.91;;;30.11;59.24
22938;BME280;11634;42.734;23.298;2022-08-16T12:43:14;94873.88;;;30.42;59.19
22938;BME280;11634;42.734;23.298;2022-08-16T12:45:47;94873.44;;;30.85;57.13
22938;BME280;11634;42.734;23.298;2022-08-16T12:48:16;94853.47;;;30.46;52.38
22938;BME280;11634;42.734;23.298;2022-08-16T12:51:06;94867.28;;;30.99;52.70
22938;BME280;11634;42.734;23.298;2022-08-16T12:53:33;94870.78;;;31.50;52.18
22938;BME280;11634;42.734;23.298;2022-08-16T12:56:01;94858.63;;;31.62;51.10
22938;BME280;11634;42.734;23.298;2022-08-16T12:58:27;94863.78;;;31.29;51.20
22938;BME280;11634;42.734;23.298;2022-08-16T13:00:54;94850.84;;;31.41;50.87
22938;BME280;11634;42.734;23.298;2022-08-16T13:03:20;94847.09;;;31.52;46.73
22938;BME280;11634;42.734;23.298;2022-08-16T13:05:46;94848.72;;;31.48;44.96
22938;BME280;11634;42.734;23.298;2022-08-16T13:08:16;94850.31;;;31.09;42.48
22938;BME280;11634;42.734;23.298;2022-08-16T13:10:45;94855.13;;;30.82;42.23
22938;BME280;11634;42.734;23.298;2022-08-16T13:13:18;94817.19;;;30.74;41.58